Time;durP1;ratioP1;P1;durP2;ratioP2;P2;SDS_P1;SDS_P2;PMS_P1;PMS_P2;Temp;Humidity;BMP_temperature;BMP_pressure;BME280_temperature;BME280_humidity;BME280_pressure;Samples;Min_cycle;Max_cycle;Signal;HPM_P1;HPM_P2
2020/12/06 00:02:04;;;;;;;15.88;9.68;;;6.50;74.40;;;;;;5095235;28;20113;-67
2020/12/06 00:04:29;;;;;;;21.23;10.50;;;6.50;74.40;;;;;;5095515;28;20059;-67
2020/12/06 00:06:56;;;;;;;18.42;10.73;;;6.50;74.30;;;;;;5095653;28;20063;-67
2020/12/06 00:09:22;;;;;;;19.55;11.15;;;6.50;74.30;;;;;;5094821;28;20539;-67
2020/12/06 00:11:47;;;;;;;14.75;10.05;;;6.50;74.20;;;;;;5095330;28;20070;-67
2020/12/06 00:14:13;;;;;;;16.55;9.85;;;6.60;74.20;;;;;;5095349;28;20059;-67
2020/12/06 00:16:38;;;;;;;17.55;9.60;;;6.60;74.20;;;;;;5095526;28;20046;-67
2020/12/06 00:19:04;;;;;;;19.08;10.15;;;6.60;74.10;;;;;;5095736;28;20114;-67
2020/12/06 00:21:30;;;;;;;15.88;9.40;;;6.60;74.00;;;;;;5094849;28;20534;-67
2020/12/06 00:23:56;;;;;;;16.38;9.70;;;6.60;73.90;;;;;;5095384;28;20472;-67
2020/12/06 00:26:26;;;;;;;18.20;9.50;;;6.50;73.80;;;;;;5095545;28;20076;-67
2020/12/06 00:28:53;;;;;;;16.20;9.18;;;6.60;73.80;;;;;;5094975;28;20029;-67
2020/12/06 00:31:19;;;;;;;16.08;8.80;;;6.60;73.70;;;;;;5095136;28;20035;-67
2020/12/06 00:33:45;;;;;;;18.45;10.77;;;6.60;73.80;;;;;;5095203;28;20361;-67
2020/12/06 00:36:15;;;;;;;14.98;9.30;;;6.60;73.80;;;;;;5094550;28;20035;-67
2020/12/06 00:38:41;;;;;;;22.25;9.35;;;6.60;73.70;;;;;;5095186;28;20105;-67
2020/12/06 00:41:12;;;;;;;21.70;9.68;;;6.60;73.70;;;;;;5095083;28;20468;-67
2020/12/06 00:43:39;;;;;;;16.88;8.98;;;6.60;73.70;;;;;;5094541;28;20115;-67
2020/12/06 00:46:04;;;;;;;16.88;8.88;;;6.70;73.80;;;;;;5094580;28;20035;-67
2020/12/06 00:48:30;;;;;;;18.73;9.80;;;6.60;73.80;;;;;;5095021;28;20020;-67
2020/12/06 00:50:57;;;;;;;15.40;9.52;;;6.60;73.80;;;;;;5094602;28;20028;-67
2020/12/06 00:53:23;;;;;;;18.65;9.00;;;6.60;73.80;;;;;;5093437;28;20498;-67
2020/12/06 00:55:49;;;;;;;17.98;9.75;;;6.60;73.80;;;;;;5095022;28;20028;-67
2020/12/06 00:58:16;;;;;;;19.38;9.75;;;6.60;73.80;;;;;;5093061;28;20376;-67
2020/12/06 01:00:41;;;;;;;13.35;8.73;;;6.60;73.70;;;;;;5094497;28;20035;-67
2020/12/06 01:03:07;;;;;;;17.52;8.02;;;6.60;73.80;;;;;;5094504;28;20115;-67
2020/12/06 01:05:35;;;;;;;14.88;8.35;;;6.50;73.80;;;;;;5094138;28;20082;-67
2020/12/06 01:08:01;;;;;;;16.08;8.70;;;6.50;73.90;;;;;;5094095;28;20085;-67
2020/12/06 01:10:27;;;;;;;18.33;9.43;;;6.50;73.80;;;;;;5093866;28;20032;-67
2020/12/06 01:12:53;;;;;;;17.33;9.85;;;6.50;73.90;;;;;;5094390;28;20031;-67
2020/12/06 01:15:18;;;;;;;15.45;9.43;;;6.50;73.90;;;;;;5094645;28;20360;-67
2020/12/06 01:17:44;;;;;;;14.63;8.00;;;6.50;74.00;;;;;;5093779;28;20020;-67
2020/12/06 01:20:10;;;;;;;17.88;9.68;;;6.50;74.00;;;;;;5093716;28;20383;-67
2020/12/06 01:22:36;;;;;;;14.70;8.88;;;6.40;74.00;;;;;;5094265;28;20130;-67
2020/12/06 01:25:03;;;;;;;15.50;8.90;;;6.50;74.10;;;;;;5093817;28;20036;-67
2020/12/06 01:27:29;;;;;;;16.95;9.82;;;6.40;74.10;;;;;;5094116;28;20028;-67
2020/12/06 01:29:54;;;;;;;18.00;9.40;;;6.50;74.10;;;;;;5094163;28;20400;-67
2020/12/06 01:32:20;;;;;;;15.88;8.57;;;6.50;74.10;;;;;;5093644;28;20463;-67
2020/12/06 01:34:45;;;;;;;19.88;9.77;;;6.50;74.10;;;;;;5094139;28;20020;-67
2020/12/06 01:37:11;;;;;;;18.73;11.40;;;6.50;74.10;;;;;;5094105;28;20063;-67
2020/12/06 01:39:37;;;;;;;17.90;9.88;;;6.50;74.00;;;;;;5093653;28;20107;-67
2020/12/06 01:42:03;;;;;;;18.33;9.77;;;6.50;74.00;;;;;;5093683;28;20467;-67
2020/12/06 01:44:28;;;;;;;21.02;10.82;;;6.50;74.00;;;;;;5093950;28;20032;-67
2020/12/06 01:46:55;;;;;;;19.00;9.82;;;6.50;73.90;;;;;;5093366;28;20486;-67
2020/12/06 01:49:26;;;;;;;14.57;9.27;;;6.50;73.90;;;;;;5093841;28;20028;-67
2020/12/06 01:51:59;;;;;;;15.13;8.70;;;6.50;73.70;;;;;;5094053;28;20039;-67
2020/12/06 01:54:26;;;;;;;15.98;9.40;;;6.40;73.60;;;;;;5093675;28;20107;-67
2020/12/06 01:56:51;;;;;;;20.90;9.63;;;6.40;73.40;;;;;;5093534;28;20042;-67
2020/12/06 01:59:17;;;;;;;16.17;9.85;;;6.40;73.30;;;;;;5093729;28;20099;-67
2020/12/06 02:01:55;;;;;;;19.50;9.55;;;6.40;73.40;;;;;;5093221;28;20099;-68
2020/12/06 02:04:23;;;;;;;17.60;9.68;;;6.30;73.40;;;;;;5093540;28;20036;-67
2020/12/06 02:06:49;;;;;;;16.90;9.45;;;6.30;73.30;;;;;;5092927;28;20476;-67
2020/12/06 02:09:15;;;;;;;18.73;9.63;;;6.30;73.40;;;;;;5093583;28;20027;-67
2020/12/06 02:11:41;;;;;;;18.70;11.07;;;6.20;73.40;;;;;;5093611;28;20433;-67
2020/12/06 02:14:09;;;;;;;19.73;9.60;;;6.20;73.50;;;;;;5092979;28;20384;-67
2020/12/06 02:16:35;;;;;;;18.05;10.10;;;6.20;73.70;;;;;;5093315;28;20057;-67
2020/12/06 02:19:01;;;;;;;17.33;9.68;;;6.20;73.80;;;;;;5093471;28;20028;-67
2020/12/06 02:21:26;;;;;;;17.13;9.93;;;6.20;73.90;;;;;;5092846;28;20079;-67
2020/12/06 02:23:52;;;;;;;16.13;9.23;;;6.20;74.00;;;;;;5093209;28;20111;-67
2020/12/06 02:26:17;;;;;;;15.38;9.25;;;6.20;74.10;;;;;;5093373;28;20040;-67
2020/12/06 02:28:46;;;;;;;20.05;10.05;;;6.20;74.20;;;;;;5093048;28;20038;-67
2020/12/06 02:31:11;;;;;;;16.40;8.63;;;6.20;74.30;;;;;;5094460;28;20111;-67
2020/12/06 02:33:38;;;;;;;17.50;9.73;;;6.20;74.30;;;;;;5097779;28;20099;-67
2020/12/06 02:36:04;;;;;;;17.27;9.90;;;6.30;74.50;;;;;;5097041;28;20437;-67
2020/12/06 02:38:29;;;;;;;16.88;8.95;;;6.30;74.60;;;;;;5097354;28;20024;-67
2020/12/06 02:40:55;;;;;;;16.50;9.38;;;6.30;74.60;;;;;;5097321;28;20036;-67
2020/12/06 02:43:21;;;;;;;19.65;10.57;;;6.30;74.60;;;;;;5097018;28;20085;-67
2020/12/06 02:45:46;;;;;;;16.27;9.52;;;6.30;74.70;;;;;;5097263;28;20039;-67
2020/12/06 02:48:12;;;;;;;16.90;9.95;;;6.30;74.70;;;;;;5097499;28;20020;-67
2020/12/06 02:50:38;;;;;;;17.30;9.48;;;6.30;74.70;;;;;;5096835;28;20021;-67
2020/12/06 02:53:06;;;;;;;18.70;9.73;;;6.30;74.70;;;;;;5097195;28;20028;-67
2020/12/06 02:55:32;;;;;;;17.77;9.75;;;6.30;74.70;;;;;;5097143;28;20032;-67
2020/12/06 02:57:57;;;;;;;17.00;9.02;;;6.30;74.50;;;;;;5096568;28;20046;-67
2020/12/06 03:00:23;;;;;;;20.05;9.15;;;6.30;74.30;;;;;;5097219;28;20032;-67
2020/12/06 03:02:48;;;;;;;17.92;9.02;;;6.30;74.10;;;;;;5097252;28;20024;-67
2020/12/06 03:05:14;;;;;;;18.65;9.82;;;6.30;74.00;;;;;;5096394;28;20493;-67
2020/12/06 03:07:40;;;;;;;17.02;10.02;;;6.30;74.60;;;;;;5097142;28;20115;-67
2020/12/06 03:10:08;;;;;;;17.13;9.18;;;6.20;73.80;;;;;;5096542;28;20032;-67
2020/12/06 03:12:34;;;;;;;18.58;9.20;;;6.20;73.80;;;;;;5096630;28;20039;-67
2020/12/06 03:15:01;;;;;;;17.45;9.93;;;6.20;73.80;;;;;;5097018;28;20103;-67
2020/12/06 03:17:26;;;;;;;15.60;8.88;;;6.20;73.90;;;;;;5096389;28;20039;-67
2020/12/06 03:19:52;;;;;;;16.25;9.52;;;6.10;73.80;;;;;;5096552;28;20036;-67
2020/12/06 03:22:18;;;;;;;16.77;9.27;;;6.10;73.90;;;;;;5096372;28;20044;-67
2020/12/06 03:24:43;;;;;;;18.55;9.30;;;6.20;74.00;;;;;;5095907;28;20039;-67
2020/12/06 03:27:09;;;;;;;15.60;8.65;;;6.10;73.90;;;;;;5096589;28;20032;-67
2020/12/06 03:29:35;;;;;;;17.48;9.73;;;6.20;73.90;;;;;;5096719;28;20031;-67
2020/12/06 03:32:00;;;;;;;22.95;10.13;;;6.10;73.90;;;;;;5096136;28;20056;-67
2020/12/06 03:34:26;;;;;;;18.90;10.50;;;6.10;74.10;;;;;;5096284;28;20429;-67
2020/12/06 03:36:52;;;;;;;18.52;10.43;;;6.20;74.30;;;;;;5096668;28;20032;-67
2020/12/06 03:39:17;;;;;;;18.23;10.27;;;6.20;74.30;;;;;;5095937;28;20032;-67
2020/12/06 03:41:45;;;;;;;19.50;9.27;;;6.20;74.40;;;;;;5096314;28;20383;-67
2020/12/06 03:44:11;;;;;;;19.42;10.02;;;6.20;74.50;;;;;;5095481;28;20385;-67
2020/12/06 03:46:37;;;;;;;23.23;9.45;;;6.20;74.60;;;;;;5095873;28;20032;-67
2020/12/06 03:49:02;;;;;;;16.10;9.07;;;6.20;74.70;;;;;;5096119;28;20032;-67
2020/12/06 03:51:28;;;;;;;21.42;10.85;;;6.20;74.80;;;;;;5096104;28;20034;-67
2020/12/06 03:53:54;;;;;;;23.33;10.27;;;6.20;74.80;;;;;;5095533;28;20031;-67
2020/12/06 03:56:19;;;;;;;19.15;9.88;;;6.20;75.00;;;;;;5095947;28;20032;-67
2020/12/06 03:58:45;;;;;;;18.95;10.27;;;6.20;75.10;;;;;;5096180;28;20058;-67
2020/12/06 04:01:11;;;;;;;19.35;10.65;;;6.20;75.20;;;;;;5095195;28;20028;-67
2020/12/06 04:03:37;;;;;;;18.00;9.52;;;6.20;75.30;;;;;;5096115;28;20043;-67
2020/12/06 04:06:03;;;;;;;19.27;10.10;;;6.20;75.40;;;;;;5095803;28;20040;-67
2020/12/06 04:08:28;;;;;;;20.55;10.98;;;6.20;75.40;;;;;;5095240;28;20028;-67
2020/12/06 04:10:54;;;;;;;17.63;10.68;;;6.20;75.40;;;;;;5096048;28;20110;-67
2020/12/06 04:13:20;;;;;;;22.27;10.38;;;6.20;75.50;;;;;;5095379;28;20027;-67
2020/12/06 04:15:46;;;;;;;19.00;9.52;;;6.20;75.50;;;;;;5095411;28;20380;-67
2020/12/06 04:18:11;;;;;;;17.27;9.85;;;6.20;75.50;;;;;;5095652;28;20031;-67
2020/12/06 04:20:37;;;;;;;17.15;9.48;;;6.20;75.50;;;;;;5094954;28;20043;-67
2020/12/06 04:23:03;;;;;;;19.27;10.75;;;6.20;75.40;;;;;;5095043;28;20036;-67
2020/12/06 04:25:28;;;;;;;17.63;9.45;;;6.20;75.40;;;;;;5095334;28;20543;-67
2020/12/06 04:27:54;;;;;;;18.08;9.88;;;6.10;75.40;;;;;;5094798;28;20464;-67
2020/12/06 04:30:19;;;;;;;16.25;9.05;;;6.10;75.50;;;;;;5095380;28;20032;-67
2020/12/06 04:32:45;;;;;;;16.20;9.68;;;6.10;75.50;;;;;;5095515;28;20111;-67
2020/12/06 04:35:11;;;;;;;17.65;10.38;;;6.10;75.50;;;;;;5094882;28;20059;-67
2020/12/06 04:37:37;;;;;;;17.55;10.38;;;6.10;75.50;;;;;;5094907;28;20028;-67
2020/12/06 04:40:04;;;;;;;16.80;9.57;;;6.10;75.50;;;;;;5095028;28;20039;-67
2020/12/06 04:42:30;;;;;;;23.05;11.15;;;6.10;75.50;;;;;;5094549;28;20039;-67
2020/12/06 04:44:56;;;;;;;16.70;10.38;;;6.10;75.60;;;;;;5094571;28;20407;-67
2020/12/06 04:47:36;;;;;;;19.50;10.02;;;6.00;75.60;;;;;;5094496;28;20093;-67
2020/12/06 04:50:04;;;;;;;20.98;10.95;;;6.00;75.70;;;;;;5094542;28;20036;-67
2020/12/06 04:52:42;;;;;;;19.13;10.50;;;6.00;75.80;;;;;;5095073;28;20032;-67
2020/12/06 04:55:11;;;;;;;19.02;10.02;;;6.00;75.80;;;;;;5094023;28;20028;-67
2020/12/06 04:57:38;;;;;;;17.02;10.35;;;6.00;75.80;;;;;;5094080;28;20081;-67
2020/12/06 05:00:11;;;;;;;19.75;11.02;;;6.00;75.80;;;;;;5094864;28;20111;-67
2020/12/06 05:02:42;;;;;;;20.05;11.18;;;6.00;75.90;;;;;;5094304;28;20024;-67
2020/12/06 05:05:08;;;;;;;19.25;10.57;;;6.00;76.00;;;;;;5094606;28;20096;-67
2020/12/06 05:07:35;;;;;;;20.58;11.43;;;6.00;75.90;;;;;;5094668;28;20500;-67
2020/12/06 05:10:02;;;;;;;20.67;11.02;;;6.00;76.00;;;;;;5094166;28;20103;-67
2020/12/06 05:12:27;;;;;;;19.20;9.88;;;6.00;76.00;;;;;;5094450;28;20039;-67
2020/12/06 05:14:53;;;;;;;22.90;12.13;;;6.00;76.10;;;;;;5094610;28;20028;-67
2020/12/06 05:17:19;;;;;;;27.27;12.02;;;6.00;76.10;;;;;;5094087;28;20117;-67
2020/12/06 05:19:47;;;;;;;23.05;11.52;;;6.00;76.10;;;;;;5094466;28;20365;-67
2020/12/06 05:22:13;;;;;;;19.98;10.88;;;6.00;76.10;;;;;;5094150;28;20537;-67
2020/12/06 05:24:41;;;;;;;22.38;12.27;;;6.00;76.10;;;;;;5093612;28;20472;-67
2020/12/06 05:27:08;;;;;;;19.35;9.93;;;6.00;76.10;;;;;;5094300;28;20115;-67
2020/12/06 05:29:33;;;;;;;19.20;10.55;;;6.00;76.10;;;;;;5094345;28;20077;-67
2020/12/06 05:32:03;;;;;;;20.77;10.95;;;6.00;76.10;;;;;;5093524;28;20024;-66
2020/12/06 05:34:29;;;;;;;20.88;10.75;;;6.00;76.10;;;;;;5094182;28;20036;-67
2020/12/06 05:36:54;;;;;;;23.27;11.60;;;6.00;76.20;;;;;;5094256;28;20040;-67
2020/12/06 05:39:23;;;;;;;22.83;12.10;;;6.00;76.20;;;;;;5093354;28;20482;-67
2020/12/06 05:41:49;;;;;;;22.20;11.73;;;5.90;76.20;;;;;;5094246;28;20028;-67
2020/12/06 05:44:20;;;;;;;22.20;11.82;;;5.90;76.30;;;;;;5093915;28;20472;-67
2020/12/06 05:46:46;;;;;;;21.00;12.38;;;6.00;76.40;;;;;;5093472;28;20032;-67
2020/12/06 05:49:16;;;;;;;21.02;11.60;;;5.90;76.40;;;;;;5094078;28;20027;-67
2020/12/06 05:51:42;;;;;;;23.42;12.55;;;5.90;76.40;;;;;;5094072;28;20032;-66
2020/12/06 05:54:11;;;;;;;22.65;12.82;;;5.90;76.40;;;;;;5093273;28;20024;-67
2020/12/06 05:56:43;;;;;;;22.00;11.98;;;5.90;76.40;;;;;;5094054;28;20437;-67
2020/12/06 05:59:08;;;;;;;20.92;11.70;;;5.90;76.50;;;;;;5093343;28;20487;-67
2020/12/06 06:01:34;;;;;;;18.38;9.80;;;5.90;76.60;;;;;;5093734;28;20027;-67
2020/12/06 06:04:02;;;;;;;23.55;11.27;;;5.90;76.60;;;;;;5093747;28;20032;-67
2020/12/06 06:06:39;;;;;;;22.30;12.48;;;5.90;76.70;;;;;;5092766;28;20491;-67
2020/12/06 06:09:05;;;;;;;21.13;10.20;;;5.80;76.70;;;;;;5093464;28;20031;-67
2020/12/06 06:11:31;;;;;;;23.33;11.52;;;5.80;76.70;;;;;;5093597;28;20089;-67
2020/12/06 06:14:11;;;;;;;26.55;11.93;;;5.80;77.40;;;;;;5093309;28;20020;-67
2020/12/06 06:16:36;;;;;;;25.98;13.13;;;5.80;77.00;;;;;;5093508;28;20030;-67
2020/12/06 06:19:06;;;;;;;22.73;11.48;;;5.70;77.00;;;;;;5093821;28;20382;-67
2020/12/06 06:21:38;;;;;;;27.55;12.52;;;5.80;77.20;;;;;;5092558;28;20051;-67
2020/12/06 06:24:12;;;;;;;24.13;12.07;;;5.70;77.20;;;;;;5093623;28;20028;-67
2020/12/06 06:26:42;;;;;;;23.65;12.13;;;5.70;77.30;;;;;;5093634;28;20066;-67
2020/12/06 06:29:11;;;;;;;28.30;13.38;;;5.70;77.40;;;;;;5092807;28;20107;-67
2020/12/06 06:31:40;;;;;;;24.52;12.00;;;5.70;77.50;;;;;;5093656;28;20031;-67
2020/12/06 06:34:06;;;;;;;26.10;12.60;;;5.70;77.50;;;;;;5093036;28;20379;-67
2020/12/06 06:36:33;;;;;;;26.27;14.25;;;5.80;77.70;;;;;;5093155;28;20460;-67
2020/12/06 06:39:00;;;;;;;23.38;12.82;;;5.80;77.60;;;;;;5093524;28;20127;-67
2020/12/06 06:41:27;;;;;;;28.38;13.75;;;5.80;77.80;;;;;;5092926;28;20051;-67
2020/12/06 06:44:03;;;;;;;27.38;13.30;;;5.80;77.80;;;;;;5093226;28;20116;-67
2020/12/06 06:46:36;;;;;;;26.35;13.60;;;5.80;77.90;;;;;;5093103;28;20399;-67
2020/12/06 06:49:09;;;;;;;24.92;13.93;;;5.80;77.90;;;;;;5092742;28;20020;-67
2020/12/06 06:51:36;;;;;;;25.50;13.45;;;5.80;77.90;;;;;;5093239;28;20078;-67
2020/12/06 06:54:07;;;;;;;24.27;13.15;;;5.80;77.90;;;;;;5093726;28;20063;-67
2020/12/06 06:57:02;;;;;;;24.75;11.85;;;5.80;78.00;;;;;;5092339;28;20032;-67
2020/12/06 06:59:44;;;;;;;23.77;11.82;;;5.80;78.10;;;;;;5083974;28;20341;-67
2020/12/06 07:02:25;;;;;;;26.75;13.75;;;5.80;78.20;;;;;;5092752;28;20376;-67
2020/12/06 07:04:52;;;;;;;26.13;12.65;;;5.70;78.30;;;;;;5092868;28;20032;-67
2020/12/06 07:07:57;;;;;;;27.40;14.70;;;5.70;78.30;;;;;;5093196;28;20036;-67
2020/12/06 07:10:24;;;;;;;27.60;13.00;;;5.70;78.50;;;;;;5050218;28;20033;-67
2020/12/06 07:12:52;;;;;;;26.67;12.57;;;5.70;78.40;;;;;;5050736;28;20063;-67
2020/12/06 07:15:19;;;;;;;27.13;14.40;;;5.70;78.50;;;;;;5071870;28;20071;-67
2020/12/06 07:17:46;;;;;;;24.75;14.02;;;5.70;78.60;;;;;;5092567;28;20040;-67
2020/12/06 07:20:13;;;;;;;28.00;13.05;;;5.70;78.80;;;;;;5096680;28;20463;-67
2020/12/06 07:22:40;;;;;;;25.25;12.88;;;5.70;78.90;;;;;;5096542;28;20055;-67
2020/12/06 07:25:07;;;;;;;25.67;12.60;;;5.70;79.00;;;;;;5095879;28;20046;-67
2020/12/06 07:27:33;;;;;;;28.35;14.10;;;5.70;79.00;;;;;;5096629;28;20038;-67
2020/12/06 07:30:00;;;;;;;27.67;13.02;;;5.70;79.10;;;;;;5096501;28;20043;-67
2020/12/06 07:32:26;;;;;;;26.90;13.07;;;5.70;79.20;;;;;;5095872;28;20036;-67
2020/12/06 07:34:52;;;;;;;27.80;13.80;;;5.80;79.20;;;;;;5096422;28;20024;-67
2020/12/06 07:37:18;;;;;;;28.23;12.32;;;5.70;79.20;;;;;;5096158;28;20361;-67
2020/12/06 07:39:45;;;;;;;24.25;12.18;;;5.70;79.30;;;;;;5096071;28;20020;-67
2020/12/06 07:42:21;;;;;;;26.25;12.02;;;5.70;79.40;;;;;;5096356;28;20042;-67
2020/12/06 07:44:52;;;;;;;22.40;11.77;;;5.70;79.40;;;;;;5095700;28;20040;-67
2020/12/06 07:47:18;;;;;;;27.13;12.80;;;5.80;79.40;;;;;;5095927;28;20115;-67
2020/12/06 07:49:46;;;;;;;28.00;12.52;;;5.80;79.40;;;;;;5096016;28;20081;-67
2020/12/06 07:52:17;;;;;;;27.52;12.02;;;5.80;79.50;;;;;;5095780;28;20024;-67
2020/12/06 07:55:04;;;;;;;26.88;12.75;;;5.80;79.40;;;;;;5096097;28;20028;-67
2020/12/06 07:57:32;;;;;;;29.70;13.45;;;5.80;79.50;;;;;;5096028;28;20111;-67
2020/12/06 07:59:59;;;;;;;25.63;12.48;;;5.80;79.40;;;;;;5095263;28;20496;-67
2020/12/06 08:02:30;;;;;;;25.15;12.23;;;5.80;79.50;;;;;;5095859;28;20478;-67
2020/12/06 08:04:57;;;;;;;27.30;12.38;;;5.80;79.50;;;;;;5095709;28;20492;-67
2020/12/06 08:07:36;;;;;;;26.20;12.32;;;5.90;79.50;;;;;;5095035;28;20028;-67
2020/12/06 08:10:04;;;;;;;25.48;12.77;;;5.80;79.60;;;;;;5104236;28;20449;-67
2020/12/06 08:12:33;;;;;;;26.20;12.82;;;5.80;79.50;;;;;;5112112;28;20028;-66
2020/12/06 08:15:06;;;;;;;24.67;12.75;;;5.90;79.60;;;;;;5098859;28;20028;-67
2020/12/06 08:17:49;;;;;;;24.58;12.95;;;5.90;79.50;;;;;;5095541;28;20387;-67
2020/12/06 08:20:18;;;;;;;25.48;12.18;;;5.90;79.60;;;;;;5094809;28;20032;-68
2020/12/06 08:22:58;;;;;;;26.90;13.93;;;5.90;79.50;;;;;;5095062;28;20043;-68
2020/12/06 08:25:46;;;;;;;23.40;12.65;;;5.90;79.60;;;;;;5095650;28;20039;-72
2020/12/06 08:28:18;;;;;;;25.35;12.73;;;5.90;79.60;;;;;;5094800;28;20028;-71
2020/12/06 08:30:44;;;;;;;21.75;11.57;;;6.00;79.70;;;;;;5095249;28;20028;-68
2020/12/06 08:33:13;;;;;;;27.60;12.23;;;6.00;79.70;;;;;;5095248;28;20476;-67
2020/12/06 08:35:44;;;;;;;23.58;12.82;;;6.00;79.70;;;;;;5094550;28;20541;-68
2020/12/06 08:38:22;;;;;;;25.60;12.48;;;6.00;79.80;;;;;;5095559;28;20399;-69
2020/12/06 08:41:08;;;;;;;28.10;14.25;;;5.90;79.90;;;;;;5094795;28;20053;-68
2020/12/06 08:43:51;;;;;;;24.75;12.68;;;6.00;80.00;;;;;;5094827;28;20039;-68
2020/12/06 08:46:24;;;;;;;31.48;12.50;;;5.90;80.60;;;;;;5095154;28;20044;-68
2020/12/06 08:48:57;;;;;;;24.95;11.98;;;5.90;80.00;;;;;;5094300;28;20484;-68
2020/12/06 08:51:37;;;;;;;22.50;12.07;;;5.90;80.00;;;;;;5095064;28;20471;-69
2020/12/06 08:54:07;;;;;;;24.75;12.77;;;6.00;80.10;;;;;;5094934;28;20476;-68
2020/12/06 08:56:34;;;;;;;23.55;11.52;;;6.00;80.30;;;;;;5094088;28;20130;-68
2020/12/06 08:59:10;;;;;;;27.52;13.13;;;6.00;80.40;;;;;;5094991;28;20035;-68
2020/12/06 09:01:49;;;;;;;25.63;13.27;;;6.00;80.50;;;;;;5094933;28;20024;-68
2020/12/06 09:04:16;;;;;;;26.88;13.50;;;6.00;80.50;;;;;;5094398;28;20119;-68
2020/12/06 09:06:42;;;;;;;32.55;13.70;;;6.00;80.50;;;;;;5094808;28;20524;-68
2020/12/06 09:09:08;;;;;;;29.25;13.65;;;6.00;80.60;;;;;;5094320;28;20477;-68
2020/12/06 09:11:34;;;;;;;27.98;13.38;;;6.00;80.80;;;;;;5094360;28;20024;-67
2020/12/06 09:14:00;;;;;;;26.30;14.20;;;6.00;80.80;;;;;;5094429;28;20028;-67
2020/12/06 09:16:26;;;;;;;24.95;13.95;;;6.00;80.90;;;;;;5097502;28;20032;-70
2020/12/06 09:18:52;;;;;;;26.98;14.65;;;6.00;81.00;;;;;;5095019;28;20024;-69
2020/12/06 09:21:19;;;;;;;26.83;13.68;;;6.10;81.20;;;;;;5093966;28;20085;-69
2020/12/06 09:23:45;;;;;;;28.38;14.93;;;6.10;81.20;;;;;;5093409;28;20024;-70
2020/12/06 09:26:11;;;;;;;28.42;14.15;;;6.20;81.30;;;;;;5093761;28;20570;-70
2020/12/06 09:28:37;;;;;;;25.92;13.25;;;6.20;81.30;;;;;;5094277;28;20028;-71
2020/12/06 09:31:03;;;;;;;28.08;14.60;;;6.20;81.30;;;;;;5093507;28;20028;-70
2020/12/06 09:33:28;;;;;;;25.08;12.88;;;6.20;81.40;;;;;;5094163;28;20024;-70
2020/12/06 09:35:54;;;;;;;26.90;14.35;;;6.30;81.40;;;;;;5094283;28;20376;-70
2020/12/06 09:38:21;;;;;;;25.73;13.52;;;6.20;81.40;;;;;;5093529;28;20032;-70
2020/12/06 09:40:47;;;;;;;25.08;13.13;;;6.30;81.50;;;;;;5093660;28;20122;-70
2020/12/06 09:43:12;;;;;;;29.65;14.40;;;6.30;81.50;;;;;;5093873;28;20107;-69
2020/12/06 09:45:40;;;;;;;25.77;13.25;;;6.30;81.50;;;;;;5092985;28;20042;-70
2020/12/06 09:48:06;;;;;;;29.55;14.80;;;6.40;81.60;;;;;;5092931;28;20085;-70
2020/12/06 09:50:31;;;;;;;29.77;14.35;;;6.40;81.60;;;;;;5093244;28;20475;-70
2020/12/06 09:52:57;;;;;;;23.05;13.20;;;6.40;81.60;;;;;;5093170;28;20563;-70
2020/12/06 09:55:26;;;;;;;31.77;13.32;;;6.40;81.60;;;;;;5093564;28;20066;-70
2020/12/06 09:57:51;;;;;;;26.70;14.15;;;6.40;81.70;;;;;;5094055;28;20035;-70
2020/12/06 10:00:17;;;;;;;31.63;13.48;;;6.50;81.70;;;;;;5092643;28;20384;-70
2020/12/06 10:02:43;;;;;;;26.27;14.18;;;6.50;81.70;;;;;;5093693;28;20387;-70
2020/12/06 10:05:10;;;;;;;24.73;13.57;;;6.50;81.80;;;;;;5092246;28;20498;-67
2020/12/06 10:07:36;;;;;;;26.42;13.40;;;6.50;81.70;;;;;;5092204;28;20034;-66
2020/12/06 10:10:06;;;;;;;27.75;13.43;;;6.50;81.80;;;;;;5092727;28;20413;-68
2020/12/06 10:12:32;;;;;;;26.27;14.38;;;6.50;81.90;;;;;;5093270;28;20028;-67
2020/12/06 10:14:57;;;;;;;28.42;14.80;;;6.50;82.00;;;;;;5093616;28;20418;-67
2020/12/06 10:17:23;;;;;;;24.80;13.45;;;6.50;82.10;;;;;;5092483;28;20027;-67
2020/12/06 10:19:49;;;;;;;27.02;13.93;;;6.60;82.10;;;;;;5092193;28;20028;-70
2020/12/06 10:22:14;;;;;;;29.83;13.63;;;6.50;82.10;;;;;;5091568;28;20052;-67
2020/12/06 10:24:40;;;;;;;25.60;13.38;;;6.60;82.20;;;;;;5092007;28;20395;-66
2020/12/06 10:27:06;;;;;;;26.45;13.50;;;6.60;82.20;;;;;;5091416;28;20036;-67
2020/12/06 10:29:31;;;;;;;30.38;15.82;;;6.60;82.20;;;;;;5092050;28;20028;-67
2020/12/06 10:31:59;;;;;;;26.73;13.25;;;6.60;82.40;;;;;;5093245;28;20032;-67
2020/12/06 10:34:26;;;;;;;28.17;13.63;;;6.60;82.40;;;;;;5092744;28;20065;-67
2020/12/06 10:36:52;;;;;;;25.30;14.13;;;6.60;82.50;;;;;;5093611;28;20032;-67
2020/12/06 10:39:20;;;;;;;28.25;14.60;;;6.60;82.60;;;;;;5093461;28;20032;-68
2020/12/06 10:41:47;;;;;;;27.48;14.95;;;6.60;82.70;;;;;;5092499;28;20036;-68
2020/12/06 10:44:13;;;;;;;33.45;14.60;;;6.60;82.90;;;;;;5093110;28;20032;-66
2020/12/06 10:46:39;;;;;;;29.20;14.38;;;6.60;83.00;;;;;;5093140;28;20098;-67
2020/12/06 10:49:04;;;;;;;26.30;13.70;;;6.70;83.00;;;;;;5092807;28;20020;-68
2020/12/06 10:51:30;;;;;;;23.85;13.57;;;6.70;83.00;;;;;;5093527;28;20103;-69
2020/12/06 10:53:56;;;;;;;28.92;13.55;;;6.70;82.80;;;;;;5097248;28;20570;-68
2020/12/06 10:56:21;;;;;;;27.40;12.75;;;6.70;82.90;;;;;;5096629;28;20062;-69
2020/12/06 10:58:48;;;;;;;24.83;12.63;;;6.70;83.00;;;;;;5097298;28;20068;-67
2020/12/06 11:01:14;;;;;;;25.55;12.15;;;6.80;83.10;;;;;;5096793;28;20114;-68
2020/12/06 11:03:40;;;;;;;30.85;13.45;;;6.80;83.20;;;;;;5096970;28;20028;-67
2020/12/06 11:06:05;;;;;;;25.42;13.98;;;6.80;83.30;;;;;;5097108;28;20043;-67
2020/12/06 11:08:31;;;;;;;25.88;13.15;;;6.80;83.30;;;;;;5096596;28;20051;-67
2020/12/06 11:10:57;;;;;;;21.10;11.23;;;6.80;83.30;;;;;;5096773;28;20031;-68
2020/12/06 11:13:22;;;;;;;29.48;15.15;;;6.80;83.30;;;;;;5096914;28;20024;-67
2020/12/06 11:15:48;;;;;;;29.42;14.90;;;6.90;83.50;;;;;;5096457;28;20036;-66
2020/12/06 11:18:13;;;;;;;27.63;13.90;;;6.90;83.50;;;;;;5096572;28;20031;-66
2020/12/06 11:20:39;;;;;;;27.85;13.77;;;6.90;83.70;;;;;;5096942;28;20062;-68
2020/12/06 11:23:05;;;;;;;26.17;14.30;;;6.90;83.80;;;;;;5095846;28;20051;-67
2020/12/06 11:25:31;;;;;;;31.90;15.80;;;7.00;83.90;;;;;;5096570;28;20043;-68
2020/12/06 11:27:56;;;;;;;29.98;15.40;;;7.00;83.90;;;;;;5096648;28;20049;-67
2020/12/06 11:30:22;;;;;;;30.42;13.85;;;7.00;83.90;;;;;;5095967;28;20379;-69
2020/12/06 11:32:48;;;;;;;31.30;15.90;;;7.10;84.00;;;;;;5096669;28;20066;-68
2020/12/06 11:35:15;;;;;;;30.60;16.63;;;7.10;84.10;;;;;;5096589;28;20036;-68
2020/12/06 11:37:41;;;;;;;32.90;14.73;;;7.10;84.10;;;;;;5095715;28;20028;-67
2020/12/06 11:40:07;;;;;;;28.00;13.65;;;7.10;84.00;;;;;;5096425;28;20417;-66
2020/12/06 11:42:32;;;;;;;30.48;15.23;;;7.20;84.00;;;;;;5094994;28;20023;-67
2020/12/06 11:44:58;;;;;;;35.97;17.80;;;7.20;84.00;;;;;;5095445;28;20084;-67
2020/12/06 11:47:24;;;;;;;29.75;14.77;;;7.20;84.00;;;;;;5096472;28;20209;-71
2020/12/06 11:49:50;;;;;;;34.88;15.90;;;7.20;84.10;;;;;;5096324;28;20028;-67
2020/12/06 11:52:15;;;;;;;38.83;16.67;;;7.20;84.30;;;;;;5095281;28;20503;-68
2020/12/06 11:54:41;;;;;;;33.13;15.57;;;7.30;84.50;;;;;;5096194;28;20021;-67
2020/12/06 11:57:07;;;;;;;30.17;16.25;;;7.20;84.50;;;;;;5095922;28;20106;-67
2020/12/06 11:59:32;;;;;;;35.58;15.95;;;7.30;84.60;;;;;;5095274;28;20036;-67
2020/12/06 12:01:58;;;;;;;38.95;17.90;;;7.30;84.60;;;;;;5095892;28;20041;-67
2020/12/06 12:04:24;;;;;;;34.58;16.70;;;7.30;84.60;;;;;;5094733;28;20028;-69
2020/12/06 12:06:50;;;;;;;35.97;17.00;;;7.30;84.60;;;;;;5094632;28;20039;-73
2020/12/06 12:09:15;;;;;;;33.25;16.02;;;7.30;84.70;;;;;;5095427;28;20464;-67
2020/12/06 12:11:41;;;;;;;35.35;17.75;;;7.30;84.70;;;;;;5095283;28;20035;-68
2020/12/06 12:14:07;;;;;;;32.95;16.00;;;7.30;84.90;;;;;;5094628;28;20044;-67
2020/12/06 12:16:33;;;;;;;36.75;16.90;;;7.40;85.00;;;;;;5094710;28;20435;-67
2020/12/06 12:19:05;;;;;;;39.20;17.63;;;7.40;85.00;;;;;;5094460;28;20032;-68
2020/12/06 12:21:32;;;;;;;32.88;17.48;;;7.40;84.90;;;;;;5094292;28;20055;-67
2020/12/06 12:23:58;;;;;;;38.90;19.42;;;7.40;85.00;;;;;;5094644;28;20068;-67
2020/12/06 12:26:23;;;;;;;35.22;16.98;;;7.40;85.20;;;;;;5093735;28;20124;-67
2020/12/06 12:28:49;;;;;;;36.15;18.25;;;7.50;85.20;;;;;;5094887;28;20038;-67
2020/12/06 12:31:15;;;;;;;38.47;17.17;;;7.50;85.10;;;;;;5095702;28;20028;-67
2020/12/06 12:33:40;;;;;;;35.35;17.00;;;7.50;85.20;;;;;;5094805;28;20051;-68
2020/12/06 12:36:06;;;;;;;35.88;16.15;;;7.50;85.10;;;;;;5095395;28;20055;-67
2020/12/06 12:38:31;;;;;;;42.63;19.00;;;7.60;85.10;;;;;;5095503;28;20024;-67
2020/12/06 12:40:57;;;;;;;38.83;17.88;;;7.60;85.20;;;;;;5094470;28;20490;-67
2020/12/06 12:43:23;;;;;;;37.25;19.35;;;7.60;85.20;;;;;;5093855;28;20046;-68